Firth, NE

8:23 AM CST on February 01, 2015 (GMT -0600)
Lincoln Municipal | Change Station
CLOSE
Current Station
Airport
Location: Lincoln,
Elevation: 1188 ft
Nearby Weather Stations
Active Advisory: Winter Storm Warning Active Notice: Record Report, Local Storm Report

Elev 1188 ft 40.85 °N, 96.76 °W | Updated 29 minutes ago

Snow
Snow
22 °F
Feels Like 3 °F
N
32
Wind Variable Wind from North
Gusts 44 mph

Today
High -- | Low -- °F
--% Chance of Precip.
Yesterday
High -- | Low -- °F
Precip. -- in
7:36 AM 5:44 PM
Waxing Gibbous, 95% visible
Pressure 29.99 in
Visibility 0.8 miles
Clouds Few 1100 ft
Overcast 1700 ft
Windchill 3 °F
Dew Point 18 °F
Humidity 85%
Rainfall 0.11 in
Snow Depth Not available.
UV 0 out of 12
Pollen .10 out of 12
Air Quality Not available.
Flu Activity Not available.
METAR KLNK 011354Z 35028G38KT 3/4SM R36/4500V5000FT -SN BR FEW011 OVC017 M06/M08 A2995 RMK AO2 PK WND 35038/1349 SLP154 P0000 T10561078

More Conditions Fewer Conditions

Pressure 29.99 in
Visibility 0.8 miles
Clouds Few 1100 ft
Overcast 1700 ft
Windchill 3 °F
Dew Point 18 °F
Humidity 85%
Rainfall 0.11 in
Snow Depth Not available.
UV 0 out of 12
Pollen .10 out of 12
Air Quality Not available.
Flu Activity Not available.
METAR KLNK 011354Z 35028G38KT 3/4SM R36/4500V5000FT -SN BR FEW011 OVC017 M06/M08 A2995 RMK AO2 PK WND 35038/1349 SLP154 P0000 T10561078

More Conditions Fewer Conditions

10-Day Weather Forecast

Almanac

Astronomy

Feb. 01, 2015 Rise Set
Actual Time
Civil Twilight
Nautical Twilight
Astronomical Twilight
Moon
Length of Visible Light
Length of Day
Tomorrow will be .
, % of the Moon is Illuminated

Today's Extremes

State Highs State Lows

Community

WunderPhotos

Upload Photos

1,792,362 photos uploaded!

WunderBlogs® & News

Nearby

Air Quality

  Air Quality AQ Index Pollutant
Not available.

Snow Depth

Station Depth Elevation

Earthquake Activity

City Distance Mag. Time & Date
Minimum magnitude displayed is 2.5.

Coastal Water Temperatures

Place Temperature

Nearby Weather Stations